Stations météo

Publicité
Beg Melen, France (7203): Température de l'air & dewpoint: 26.03.2020 10:00:00 - 01.04.2020 10:00:00 (CEST)Beg Melen, France (7203): Vitesse du vent & gusts: 26.03.2020 10:00:00 - 01.04.2020 10:00:00 (CEST)Beg Melen, France (7203): Direction du vent: 26.03.2020 10:00:00 - 01.04.2020 10:00:00 (CEST)Beg Melen, France (7203): visibility: 26.03.2020 10:00:00 - 01.04.2020 10:00:00 (CEST)Beg Melen, France (7203): Quantités de précipitations: 26.03.2020 10:00:00 - 01.04.2020 10:00:00 (CEST)
Date & Time tt [°C] td [°C] ff [km/h] ff [knt] fx [km/h] fx [knt] dd vv [km] rr [mm]
01.04.2020 10:00:00 6,6 -0,4 45 24 64 35 NE - 0,0
01.04.2020 09:00:00 5,7 0,0 39 21 67 36 NE - 0,0
01.04.2020 08:00:00 5,2 0,2 37 20 60 32 NE 14 0,0
01.04.2020 07:00:00 5,4 0,0 36 19 66 36 NE - 0,0
01.04.2020 06:00:00 5,5 0,1 31 17 56 31 NE - 0,0
01.04.2020 05:00:00 5,8 0,1 32 17 57 31 NE 25 0,0
01.04.2020 04:00:00 6,1 0,4 34 19 65 35 NE - 0,0
01.04.2020 03:00:00 6,5 0,6 40 22 68 37 NE - 0,0
01.04.2020 02:00:00 6,9 1,6 39 21 72 39 NE 25 0,0
01.04.2020 01:00:00 7,2 2,1 46 25 71 38 NE - 0,0
01.04.2020 00:00:00 7,7 2,6 49 27 69 37 NE - 0,0
31.03.2020 23:00:00 8,6 2,6 43 23 60 33 NE 25 0,0
31.03.2020 22:00:00 9,7 1,8 31 17 61 33 NE - 0,0
31.03.2020 21:00:00 10,4 1,0 39 21 66 36 ENE - 0,0
31.03.2020 20:00:00 11,4 1,9 45 24 76 41 NE 25 0,0
31.03.2020 19:00:00 11,9 1,2 41 22 67 36 NE - 0,0
31.03.2020 18:00:00 12,3 1,9 35 19 64 35 NE - 0,0
31.03.2020 17:00:00 12,3 1,3 36 19 66 35 ENE 25 0,0
31.03.2020 16:00:00 12,1 0,2 39 21 68 37 ENE - 0,0
31.03.2020 15:00:00 11,7 -0,2 41 22 67 36 ENE - 0,0
31.03.2020 14:00:00 10,9 0,3 42 23 70 38 ENE 25 0,0
31.03.2020 13:00:00 9,8 -0,1 45 25 70 38 ENE - 0,0
31.03.2020 12:00:00 8,6 -0,2 38 20 64 35 ENE - 0,0
31.03.2020 11:00:00 7,4 -0,3 38 20 64 35 ENE 25 0,0
31.03.2020 10:00:00 6,2 1,3 37 20 68 37 ENE - 0,0
31.03.2020 09:00:00 5,6 1,5 38 20 74 40 NE - 0,0
31.03.2020 08:00:00 5,1 1,4 52 28 78 42 NE 25 0,0
31.03.2020 07:00:00 5,5 1,4 40 22 66 36 NE - 0,0
31.03.2020 06:00:00 5,8 2,1 40 22 71 38 NE - 0,0
31.03.2020 05:00:00 5,8 1,7 48 26 78 42 NE 25 0,0
31.03.2020 04:00:00 6,1 2,2 45 24 77 42 NE - 0,0
31.03.2020 03:00:00 6,1 1,6 48 26 83 45 NE - 0,0
31.03.2020 02:00:00 6,4 1,7 54 29 81 44 NE 25 0,0
31.03.2020 01:00:00 6,6 1,5 52 28 78 42 NE - 0,0
31.03.2020 00:00:00 6,6 1,1 54 29 82 44 NNE - 0,0
30.03.2020 23:00:00 6,8 1,3 56 31 81 44 NNE 25 0,0
30.03.2020 22:00:00 7,0 1,1 56 30 86 47 NNE - 0,0
30.03.2020 21:00:00 7,2 1,1 60 33 93 50 NNE - 0,0
30.03.2020 20:00:00 7,8 -0,2 68 37 104 56 NNE 25 0,0
30.03.2020 19:00:00 8,3 0,0 68 37 92 50 NE - 0,0
30.03.2020 18:00:00 9,0 0,4 60 33 101 54 NNE - 0,0
30.03.2020 17:00:00 9,0 -0,1 68 37 100 54 NNE 35 0,0
30.03.2020 16:00:00 9,1 -1,1 59 32 90 49 NNE - 0,0
30.03.2020 15:00:00 8,7 -0,6 55 30 93 50 NNE - 0,0
30.03.2020 14:00:00 8,2 -1,6 62 34 93 50 NNE 25 0,0
30.03.2020 13:00:00 7,5 -2,5 66 36 103 55 NE - 0,0
30.03.2020 12:00:00 6,4 -2,5 61 33 91 49 NE - 0,0
30.03.2020 11:00:00 5,0 -2,6 55 30 92 50 NE 25 0,0
30.03.2020 10:00:00 4,3 -1,3 53 29 84 45 NE - 0,0
30.03.2020 09:00:00 3,7 -2,1 51 28 83 45 NE - 0,0
30.03.2020 08:00:00 3,7 -2,5 54 29 76 41 NE 25 0,0
30.03.2020 07:00:00 3,6 -1,2 41 22 61 33 NE - 0,0
30.03.2020 06:00:00 3,6 -1,0 36 20 71 38 NNE - 0,0
30.03.2020 05:00:00 4,3 -1,3 51 28 84 46 NNE 20 0,0
30.03.2020 04:00:00 4,4 -1,4 55 30 83 45 NE - 0,0
30.03.2020 03:00:00 4,7 -1,5 58 31 98 53 NE - 0,0
30.03.2020 02:00:00 5,4 -0,4 41 22 72 39 NE 20 0,0
30.03.2020 01:00:00 5,8 -1,1 37 20 82 44 NE - 0,0
30.03.2020 00:00:00 6,4 -2,5 53 29 98 53 NNE - 0,0
29.03.2020 23:00:00 6,5 -2,2 61 33 95 51 NNE 25 0,0
29.03.2020 22:00:00 6,8 -2,9 62 34 100 54 NE - 0,0
29.03.2020 21:00:00 6,2 0,5 57 31 88 47 NNE - 0,0
29.03.2020 20:00:00 6,8 0,0 74 40 107 58 NNE 30 0,0
29.03.2020 19:00:00 8,8 0,0 61 33 97 53 NE - 0,0
29.03.2020 18:00:00 8,5 0,2 61 33 96 52 NNE - 0,0
29.03.2020 17:00:00 8,3 -0,5 59 32 97 53 NE 25 0,0
29.03.2020 16:00:00 7,9 -2,2 56 31 103 56 NE - 0,0
29.03.2020 15:00:00 8,3 -1,5 79 42 119 64 NNE - 0,0
29.03.2020 14:00:00 8,0 -0,3 67 36 103 56 NNE 30 0,0
29.03.2020 13:00:00 7,4 -1,3 74 40 109 59 NE - 0,0
29.03.2020 12:00:00 7,0 -1,4 75 41 110 60 NE - 0,0
29.03.2020 11:00:00 7,6 2,1 58 31 106 58 NE 30 0,0
29.03.2020 10:00:00 7,0 1,9 57 31 103 56 NE - 0,0
29.03.2020 09:00:00 6,9 1,8 60 33 103 56 NE - 0,0
29.03.2020 08:00:00 7,6 2,5 65 35 118 64 NE 30 0,0
29.03.2020 07:00:00 7,8 2,5 67 36 99 53 NE - 0,0
29.03.2020 06:00:00 8,0 2,4 66 36 98 53 NE - 0,0
29.03.2020 05:00:00 8,3 3,1 54 29 97 53 NE 20 0,0
29.03.2020 04:00:00 8,5 2,9 59 32 95 51 NE - 0,0
29.03.2020 03:00:00 8,7 4,1 56 31 95 52 NE - 0,0
29.03.2020 02:00:00 8,9 4,1 55 30 88 47 NE 20 0,0
29.03.2020 01:00:00 9,0 4,4 52 28 85 46 NE - 0,0
29.03.2020 00:00:00 8,8 4,0 62 34 93 50 NE - 0,0
28.03.2020 23:00:00 9,2 4,8 53 29 72 39 NNE 8 0,0
28.03.2020 22:00:00 9,6 5,6 48 26 70 38 NNE - 0,0
28.03.2020 21:00:00 9,8 5,4 45 24 63 34 NE - 0,0
28.03.2020 20:00:00 10,3 5,9 40 21 59 32 NNE 6 0,0
28.03.2020 19:00:00 10,4 6,0 37 20 58 31 NE - 0,0
28.03.2020 18:00:00 10,6 6,3 36 19 59 32 NNE - 0,0
28.03.2020 17:00:00 10,6 6,5 40 21 56 31 NNE 8 0,0
28.03.2020 16:00:00 11,0 5,7 41 22 57 31 NNE - 0,0
28.03.2020 15:00:00 12,6 6,4 36 19 51 28 NNE - 0,0
28.03.2020 14:00:00 12,0 5,6 21 12 49 26 NE 8 0,0
28.03.2020 13:00:00 10,8 5,5 30 16 51 28 NE - 0,0
28.03.2020 12:00:00 10,3 5,7 28 15 55 30 NE - 0,0
28.03.2020 11:00:00 9,3 5,7 34 18 53 29 NE 8 0,0
28.03.2020 10:00:00 7,8 5,6 31 17 44 24 NNE - 0,0
28.03.2020 09:00:00 6,7 5,0 25 13 37 20 NNE - 0,0
28.03.2020 08:00:00 6,3 4,8 24 13 44 24 NNE 3,0 0,0
28.03.2020 07:00:00 6,5 4,8 31 17 45 24 NNE - 0,0
28.03.2020 06:00:00 6,3 4,5 26 14 37 20 NNE - 0,0
28.03.2020 05:00:00 6,7 4,5 25 14 37 20 NNE 20 0,0
28.03.2020 04:00:00 6,9 4,6 27 15 38 21 NNE - 0,0
28.03.2020 03:00:00 7,1 4,6 24 13 40 21 NNE - 0,0
28.03.2020 02:00:00 7,4 3,6 29 16 49 26 NNE 20 0,0
28.03.2020 01:00:00 8,1 3,9 37 20 50 27 NNE - 0,0
28.03.2020 00:00:00 8,0 3,5 29 15 46 25 NNE - 0,0
27.03.2020 23:00:00 8,7 4,3 36 20 54 29 NNE 20 0,0
27.03.2020 22:00:00 9,5 4,3 41 22 59 32 NNE - 0,0
27.03.2020 21:00:00 10,8 4,0 38 21 50 27 NNE - 0,0
27.03.2020 20:00:00 11,0 4,4 16 9 32 17 WNW 25 0,0
27.03.2020 19:00:00 11,9 2,6 20 11 30 16 W - 0,0
27.03.2020 18:00:00 12,8 1,5 12 7 23 12 W - 0,0
27.03.2020 17:00:00 14,8 -1,3 7 4 16 9 E 25 0,0
27.03.2020 16:00:00 13,8 -1,8 8 5 23 12 ENE - 0,0
27.03.2020 15:00:00 13,2 0,6 12 6 22 12 ENE - 0,0
27.03.2020 14:00:00 12,6 -1,0 13 7 29 16 E 25 0,0
27.03.2020 13:00:00 10,9 -1,2 16 9 29 16 NE - 0,0
27.03.2020 12:00:00 9,9 -0,3 16 9 28 15 NE - 0,0
27.03.2020 11:00:00 8,5 0,5 16 8 31 17 ENE 18 0,0
27.03.2020 10:00:00 6,7 0,4 19 10 35 19 NE - 0,0
27.03.2020 09:00:00 5,9 0,8 22 12 38 21 ENE - 0,0
27.03.2020 08:00:00 5,3 1,0 20 11 39 21 NE 10 0,0
27.03.2020 07:00:00 5,7 1,0 26 14 39 21 NE - 0,0
27.03.2020 06:00:00 5,8 0,9 22 12 44 24 NE - 0,0
27.03.2020 05:00:00 6,2 1,3 23 13 47 25 NE 20 0,0
27.03.2020 04:00:00 6,4 1,5 31 17 46 25 NE - 0,0
27.03.2020 03:00:00 6,7 1,6 23 13 43 23 NE - 0,0
27.03.2020 02:00:00 7,0 1,5 27 15 57 31 NE 20 0,0
27.03.2020 01:00:00 7,5 1,8 34 18 60 32 NE - 0,0
27.03.2020 00:00:00 7,8 1,0 39 21 58 31 NE - 0,0
26.03.2020 23:00:00 8,0 0,9 38 21 61 33 NE 25 0,0
26.03.2020 22:00:00 8,5 0,7 42 23 58 32 NE - 0,0
26.03.2020 21:00:00 9,2 0,1 42 23 67 36 NE - 0,0
26.03.2020 20:00:00 10,5 -0,6 39 21 60 32 NE 25 0,0
26.03.2020 19:00:00 11,7 1,6 39 21 56 31 NNE - 0,0
26.03.2020 18:00:00 12,7 0,1 37 20 56 31 NNE - 0,0
26.03.2020 17:00:00 12,8 0,8 35 19 67 36 NE 35 0,0
26.03.2020 16:00:00 12,5 -3,0 31 17 64 35 NE - 0,0
26.03.2020 15:00:00 12,2 -3,2 29 16 56 31 ENE - 0,0
26.03.2020 14:00:00 11,5 -4,7 31 17 55 30 NE 25 0,0
26.03.2020 13:00:00 10,7 -4,2 25 13 46 25 NE - 0,0
26.03.2020 12:00:00 9,8 -2,8 23 12 40 22 NE - 0,0
26.03.2020 11:00:00 8,2 -1,4 26 14 44 24 NE 25 0,0
26.03.2020 10:00:00 - - - - - - - - -

tt = Température de l'air
td = dewpoint
ff = Vitesse du vent
fx = gusts
dd = Direction du vent
vv = visibility
rr = Quantités de précipitations

stations d'obs. à proximité